sensor_id;sensor_type;location;lat;lon;timestamp;P1;durP1;ratioP1;P2;durP2;ratioP2
4009;SDS011;2019;48.200;11.548;2022-07-17T00:02:01;20.70;;;15.20;;
4009;SDS011;2019;48.200;11.548;2022-07-17T00:04:27;17.53;;;12.57;;
4009;SDS011;2019;48.200;11.548;2022-07-17T00:06:53;19.23;;;12.43;;
4009;SDS011;2019;48.200;11.548;2022-07-17T00:09:19;16.80;;;11.40;;
4009;SDS011;2019;48.200;11.548;2022-07-17T00:11:45;13.03;;;11.20;;
4009;SDS011;2019;48.200;11.548;2022-07-17T00:14:10;15.67;;;12.23;;
4009;SDS011;2019;48.200;11.548;2022-07-17T00:16:36;13.40;;;10.83;;
4009;SDS011;2019;48.200;11.548;2022-07-17T00:19:02;13.40;;;11.83;;
4009;SDS011;2019;48.200;11.548;2022-07-17T00:21:27;15.97;;;12.50;;
4009;SDS011;2019;48.200;11.548;2022-07-17T00:23:53;14.70;;;11.63;;
4009;SDS011;2019;48.200;11.548;2022-07-17T00:26:18;17.13;;;10.80;;
4009;SDS011;2019;48.200;11.548;2022-07-17T00:28:44;15.13;;;11.30;;
4009;SDS011;2019;48.200;11.548;2022-07-17T00:31:10;14.23;;;11.20;;
4009;SDS011;2019;48.200;11.548;2022-07-17T00:33:35;12.67;;;10.70;;
4009;SDS011;2019;48.200;11.548;2022-07-17T00:36:01;13.47;;;10.93;;
4009;SDS011;2019;48.200;11.548;2022-07-17T00:38:27;17.20;;;11.53;;
4009;SDS011;2019;48.200;11.548;2022-07-17T00:40:54;16.77;;;12.57;;
4009;SDS011;2019;48.200;11.548;2022-07-17T00:43:23;17.30;;;12.87;;
4009;SDS011;2019;48.200;11.548;2022-07-17T00:45:56;17.83;;;12.40;;
4009;SDS011;2019;48.200;11.548;2022-07-17T00:48:26;21.37;;;13.03;;
4009;SDS011;2019;48.200;11.548;2022-07-17T00:50:52;21.20;;;13.63;;
4009;SDS011;2019;48.200;11.548;2022-07-17T00:53:19;17.93;;;13.03;;
4009;SDS011;2019;48.200;11.548;2022-07-17T00:55:48;21.80;;;13.10;;
4009;SDS011;2019;48.200;11.548;2022-07-17T00:58:18;19.33;;;12.83;;
4009;SDS011;2019;48.200;11.548;2022-07-17T01:00:49;18.77;;;13.30;;
4009;SDS011;2019;48.200;11.548;2022-07-17T01:03:18;16.67;;;12.47;;
4009;SDS011;2019;48.200;11.548;2022-07-17T01:05:45;14.17;;;11.90;;
4009;SDS011;2019;48.200;11.548;2022-07-17T01:08:11;16.57;;;11.70;;
4009;SDS011;2019;48.200;11.548;2022-07-17T01:10:37;18.60;;;13.53;;
4009;SDS011;2019;48.200;11.548;2022-07-17T01:13:03;16.27;;;12.70;;
4009;SDS011;2019;48.200;11.548;2022-07-17T01:15:30;19.43;;;13.10;;
4009;SDS011;2019;48.200;11.548;2022-07-17T01:17:57;18.40;;;12.33;;
4009;SDS011;2019;48.200;11.548;2022-07-17T01:20:23;16.80;;;12.50;;
4009;SDS011;2019;48.200;11.548;2022-07-17T01:22:50;20.57;;;12.93;;
4009;SDS011;2019;48.200;11.548;2022-07-17T01:25:20;22.87;;;13.53;;
4009;SDS011;2019;48.200;11.548;2022-07-17T01:27:47;19.80;;;12.60;;
4009;SDS011;2019;48.200;11.548;2022-07-17T01:30:13;21.67;;;14.87;;
4009;SDS011;2019;48.200;11.548;2022-07-17T01:32:39;21.90;;;12.80;;
4009;SDS011;2019;48.200;11.548;2022-07-17T01:35:07;18.57;;;13.50;;
4009;SDS011;2019;48.200;11.548;2022-07-17T01:37:34;19.57;;;12.83;;
4009;SDS011;2019;48.200;11.548;2022-07-17T01:40:00;19.33;;;12.93;;
4009;SDS011;2019;48.200;11.548;2022-07-17T01:42:26;18.40;;;13.00;;
4009;SDS011;2019;48.200;11.548;2022-07-17T01:44:53;15.30;;;12.00;;
4009;SDS011;2019;48.200;11.548;2022-07-17T01:47:19;20.07;;;12.23;;
4009;SDS011;2019;48.200;11.548;2022-07-17T01:49:52;15.40;;;11.70;;
4009;SDS011;2019;48.200;11.548;2022-07-17T01:52:20;16.40;;;11.97;;
4009;SDS011;2019;48.200;11.548;2022-07-17T01:54:47;18.73;;;12.80;;
4009;SDS011;2019;48.200;11.548;2022-07-17T01:57:13;15.17;;;11.70;;
4009;SDS011;2019;48.200;11.548;2022-07-17T01:59:38;19.20;;;11.80;;
4009;SDS011;2019;48.200;11.548;2022-07-17T02:02:05;16.77;;;11.50;;
4009;SDS011;2019;48.200;11.548;2022-07-17T02:04:32;16.13;;;12.00;;
4009;SDS011;2019;48.200;11.548;2022-07-17T02:06:59;18.73;;;13.37;;
4009;SDS011;2019;48.200;11.548;2022-07-17T02:09:25;16.30;;;11.63;;
4009;SDS011;2019;48.200;11.548;2022-07-17T02:11:50;15.83;;;12.57;;
4009;SDS011;2019;48.200;11.548;2022-07-17T02:14:16;15.70;;;11.77;;
4009;SDS011;2019;48.200;11.548;2022-07-17T02:16:42;20.67;;;14.63;;
4009;SDS011;2019;48.200;11.548;2022-07-17T02:19:08;22.73;;;15.40;;
4009;SDS011;2019;48.200;11.548;2022-07-17T02:21:34;19.77;;;14.43;;
4009;SDS011;2019;48.200;11.548;2022-07-17T02:24:00;15.97;;;12.90;;
4009;SDS011;2019;48.200;11.548;2022-07-17T02:26:25;23.40;;;15.33;;
4009;SDS011;2019;48.200;11.548;2022-07-17T02:28:51;18.13;;;15.33;;
4009;SDS011;2019;48.200;11.548;2022-07-17T02:31:17;19.10;;;14.63;;
4009;SDS011;2019;48.200;11.548;2022-07-17T02:33:42;22.40;;;13.63;;
4009;SDS011;2019;48.200;11.548;2022-07-17T02:36:08;20.13;;;15.17;;
4009;SDS011;2019;48.200;11.548;2022-07-17T02:38:33;21.37;;;14.97;;
4009;SDS011;2019;48.200;11.548;2022-07-17T02:40:59;18.70;;;15.27;;
4009;SDS011;2019;48.200;11.548;2022-07-17T02:43:25;20.57;;;15.80;;
4009;SDS011;2019;48.200;11.548;2022-07-17T02:45:50;20.90;;;15.40;;
4009;SDS011;2019;48.200;11.548;2022-07-17T02:48:16;18.00;;;14.40;;
4009;SDS011;2019;48.200;11.548;2022-07-17T02:50:42;22.00;;;15.87;;
4009;SDS011;2019;48.200;11.548;2022-07-17T02:53:07;16.93;;;13.87;;
4009;SDS011;2019;48.200;11.548;2022-07-17T02:55:33;20.23;;;14.60;;
4009;SDS011;2019;48.200;11.548;2022-07-17T02:57:58;17.67;;;13.93;;
4009;SDS011;2019;48.200;11.548;2022-07-17T03:00:24;16.67;;;14.30;;
4009;SDS011;2019;48.200;11.548;2022-07-17T03:02:52;21.03;;;13.37;;
4009;SDS011;2019;48.200;11.548;2022-07-17T03:05:18;16.23;;;13.23;;
4009;SDS011;2019;48.200;11.548;2022-07-17T03:07:44;18.47;;;14.17;;
4009;SDS011;2019;48.200;11.548;2022-07-17T03:10:10;19.30;;;14.20;;
4009;SDS011;2019;48.200;11.548;2022-07-17T03:12:36;19.10;;;14.63;;
4009;SDS011;2019;48.200;11.548;2022-07-17T03:15:02;18.47;;;14.80;;
4009;SDS011;2019;48.200;11.548;2022-07-17T03:17:29;18.90;;;13.73;;
4009;SDS011;2019;48.200;11.548;2022-07-17T03:19:54;15.47;;;13.87;;
4009;SDS011;2019;48.200;11.548;2022-07-17T03:22:20;18.70;;;13.90;;
4009;SDS011;2019;48.200;11.548;2022-07-17T03:24:46;16.47;;;13.87;;
4009;SDS011;2019;48.200;11.548;2022-07-17T03:27:11;20.23;;;14.77;;
4009;SDS011;2019;48.200;11.548;2022-07-17T03:29:37;21.30;;;13.93;;
4009;SDS011;2019;48.200;11.548;2022-07-17T03:32:03;18.37;;;13.30;;
4009;SDS011;2019;48.200;11.548;2022-07-17T03:34:29;15.17;;;12.77;;
4009;SDS011;2019;48.200;11.548;2022-07-17T03:36:54;18.67;;;13.07;;
4009;SDS011;2019;48.200;11.548;2022-07-17T03:39:20;17.83;;;13.93;;
4009;SDS011;2019;48.200;11.548;2022-07-17T03:41:45;20.77;;;11.73;;
4009;SDS011;2019;48.200;11.548;2022-07-17T03:44:11;17.10;;;12.13;;
4009;SDS011;2019;48.200;11.548;2022-07-17T03:46:36;16.43;;;13.07;;
4009;SDS011;2019;48.200;11.548;2022-07-17T03:49:02;14.93;;;13.23;;
4009;SDS011;2019;48.200;11.548;2022-07-17T03:51:28;15.30;;;12.23;;
4009;SDS011;2019;48.200;11.548;2022-07-17T03:53:53;16.47;;;13.10;;
4009;SDS011;2019;48.200;11.548;2022-07-17T03:56:19;17.70;;;11.80;;
4009;SDS011;2019;48.200;11.548;2022-07-17T03:58:44;15.57;;;11.90;;
4009;SDS011;2019;48.200;11.548;2022-07-17T04:01:10;21.23;;;14.30;;
4009;SDS011;2019;48.200;11.548;2022-07-17T04:03:37;17.27;;;12.63;;
4009;SDS011;2019;48.200;11.548;2022-07-17T04:06:02;14.57;;;11.77;;
4009;SDS011;2019;48.200;11.548;2022-07-17T04:08:28;13.83;;;12.10;;
4009;SDS011;2019;48.200;11.548;2022-07-17T04:10:54;16.60;;;12.03;;
4009;SDS011;2019;48.200;11.548;2022-07-17T04:13:19;17.47;;;12.03;;
4009;SDS011;2019;48.200;11.548;2022-07-17T04:15:45;13.73;;;12.17;;
4009;SDS011;2019;48.200;11.548;2022-07-17T04:18:36;14.33;;;10.43;;
4009;SDS011;2019;48.200;11.548;2022-07-17T04:21:07;17.17;;;10.93;;
4009;SDS011;2019;48.200;11.548;2022-07-17T04:23:34;17.47;;;10.90;;
4009;SDS011;2019;48.200;11.548;2022-07-17T04:26:00;15.97;;;10.20;;
4009;SDS011;2019;48.200;11.548;2022-07-17T04:28:26;11.77;;;8.67;;
4009;SDS011;2019;48.200;11.548;2022-07-17T04:30:52;11.27;;;9.30;;
4009;SDS011;2019;48.200;11.548;2022-07-17T04:33:18;14.70;;;9.37;;
4009;SDS011;2019;48.200;11.548;2022-07-17T04:35:43;12.67;;;9.00;;
4009;SDS011;2019;48.200;11.548;2022-07-17T04:38:09;14.33;;;8.17;;
4009;SDS011;2019;48.200;11.548;2022-07-17T04:40:36;9.93;;;8.80;;
4009;SDS011;2019;48.200;11.548;2022-07-17T04:43:03;18.97;;;9.17;;
4009;SDS011;2019;48.200;11.548;2022-07-17T04:45:29;12.30;;;8.50;;
4009;SDS011;2019;48.200;11.548;2022-07-17T04:47:55;10.43;;;8.60;;
4009;SDS011;2019;48.200;11.548;2022-07-17T04:50:21;9.57;;;7.50;;
4009;SDS011;2019;48.200;11.548;2022-07-17T04:52:47;13.80;;;8.33;;
4009;SDS011;2019;48.200;11.548;2022-07-17T04:55:12;8.47;;;6.57;;
4009;SDS011;2019;48.200;11.548;2022-07-17T04:57:38;7.67;;;6.90;;
4009;SDS011;2019;48.200;11.548;2022-07-17T05:00:04;9.53;;;6.73;;
4009;SDS011;2019;48.200;11.548;2022-07-17T05:02:31;9.80;;;7.30;;
4009;SDS011;2019;48.200;11.548;2022-07-17T05:04:57;11.60;;;6.73;;
4009;SDS011;2019;48.200;11.548;2022-07-17T05:07:23;11.57;;;7.13;;
4009;SDS011;2019;48.200;11.548;2022-07-17T05:09:48;10.10;;;7.20;;
4009;SDS011;2019;48.200;11.548;2022-07-17T05:12:14;9.13;;;7.30;;
4009;SDS011;2019;48.200;11.548;2022-07-17T05:14:40;12.17;;;8.27;;
4009;SDS011;2019;48.200;11.548;2022-07-17T05:17:05;8.90;;;6.50;;
4009;SDS011;2019;48.200;11.548;2022-07-17T05:19:31;11.77;;;6.27;;
4009;SDS011;2019;48.200;11.548;2022-07-17T05:21:57;9.23;;;6.47;;
4009;SDS011;2019;48.200;11.548;2022-07-17T05:24:22;11.90;;;6.60;;
4009;SDS011;2019;48.200;11.548;2022-07-17T05:26:48;10.37;;;6.23;;
4009;SDS011;2019;48.200;11.548;2022-07-17T05:29:13;11.70;;;7.00;;
4009;SDS011;2019;48.200;11.548;2022-07-17T05:31:39;6.70;;;5.43;;
4009;SDS011;2019;48.200;11.548;2022-07-17T05:34:04;7.93;;;6.77;;
4009;SDS011;2019;48.200;11.548;2022-07-17T05:36:30;7.60;;;6.37;;
4009;SDS011;2019;48.200;11.548;2022-07-17T05:38:55;8.43;;;5.40;;
4009;SDS011;2019;48.200;11.548;2022-07-17T05:41:21;10.23;;;6.50;;
4009;SDS011;2019;48.200;11.548;2022-07-17T05:43:47;9.47;;;6.47;;
4009;SDS011;2019;48.200;11.548;2022-07-17T05:46:12;7.90;;;5.70;;
4009;SDS011;2019;48.200;11.548;2022-07-17T05:48:38;11.00;;;5.80;;
4009;SDS011;2019;48.200;11.548;2022-07-17T05:51:03;9.80;;;5.50;;
4009;SDS011;2019;48.200;11.548;2022-07-17T05:53:29;8.03;;;5.60;;
4009;SDS011;2019;48.200;11.548;2022-07-17T05:55:55;6.47;;;5.50;;
4009;SDS011;2019;48.200;11.548;2022-07-17T05:58:21;7.63;;;5.90;;
4009;SDS011;2019;48.200;11.548;2022-07-17T06:00:46;10.00;;;4.90;;
4009;SDS011;2019;48.200;11.548;2022-07-17T06:03:14;9.10;;;5.60;;
4009;SDS011;2019;48.200;11.548;2022-07-17T06:05:40;11.47;;;5.30;;
4009;SDS011;2019;48.200;11.548;2022-07-17T06:08:06;6.70;;;5.20;;
4009;SDS011;2019;48.200;11.548;2022-07-17T06:10:32;8.83;;;5.80;;
4009;SDS011;2019;48.200;11.548;2022-07-17T06:12:58;7.50;;;5.20;;
4009;SDS011;2019;48.200;11.548;2022-07-17T06:15:23;7.30;;;4.97;;
4009;SDS011;2019;48.200;11.548;2022-07-17T06:17:49;6.70;;;4.90;;
4009;SDS011;2019;48.200;11.548;2022-07-17T06:20:15;6.80;;;5.43;;
4009;SDS011;2019;48.200;11.548;2022-07-17T06:22:42;6.83;;;4.50;;
4009;SDS011;2019;48.200;11.548;2022-07-17T06:25:08;8.70;;;5.53;;
4009;SDS011;2019;48.200;11.548;2022-07-17T06:27:35;11.70;;;6.23;;
4009;SDS011;2019;48.200;11.548;2022-07-17T06:30:03;7.40;;;5.57;;
4009;SDS011;2019;48.200;11.548;2022-07-17T06:32:29;6.97;;;5.00;;
4009;SDS011;2019;48.200;11.548;2022-07-17T06:34:54;6.90;;;4.90;;
4009;SDS011;2019;48.200;11.548;2022-07-17T06:37:20;6.33;;;5.30;;
4009;SDS011;2019;48.200;11.548;2022-07-17T06:39:45;7.00;;;4.80;;
4009;SDS011;2019;48.200;11.548;2022-07-17T06:42:11;5.90;;;5.07;;
4009;SDS011;2019;48.200;11.548;2022-07-17T06:44:37;7.93;;;5.43;;
4009;SDS011;2019;48.200;11.548;2022-07-17T06:47:02;6.00;;;4.90;;
4009;SDS011;2019;48.200;11.548;2022-07-17T06:49:28;7.27;;;5.27;;
4009;SDS011;2019;48.200;11.548;2022-07-17T06:51:54;7.70;;;4.83;;
4009;SDS011;2019;48.200;11.548;2022-07-17T06:54:20;6.37;;;5.20;;
4009;SDS011;2019;48.200;11.548;2022-07-17T06:56:48;6.37;;;4.67;;
4009;SDS011;2019;48.200;11.548;2022-07-17T06:59:14;5.67;;;4.27;;
4009;SDS011;2019;48.200;11.548;2022-07-17T07:01:40;6.27;;;4.00;;
4009;SDS011;2019;48.200;11.548;2022-07-17T07:04:05;4.80;;;4.00;;
4009;SDS011;2019;48.200;11.548;2022-07-17T07:06:31;6.97;;;4.10;;
4009;SDS011;2019;48.200;11.548;2022-07-17T07:08:56;6.53;;;4.17;;
4009;SDS011;2019;48.200;11.548;2022-07-17T07:11:22;6.93;;;4.60;;
4009;SDS011;2019;48.200;11.548;2022-07-17T07:13:49;5.60;;;3.90;;
4009;SDS011;2019;48.200;11.548;2022-07-17T07:16:14;7.00;;;4.33;;
4009;SDS011;2019;48.200;11.548;2022-07-17T07:18:40;7.80;;;4.00;;
4009;SDS011;2019;48.200;11.548;2022-07-17T07:21:06;4.70;;;3.30;;
4009;SDS011;2019;48.200;11.548;2022-07-17T07:23:32;7.63;;;3.70;;
4009;SDS011;2019;48.200;11.548;2022-07-17T07:25:57;9.60;;;3.93;;
4009;SDS011;2019;48.200;11.548;2022-07-17T07:28:23;6.07;;;4.03;;
4009;SDS011;2019;48.200;11.548;2022-07-17T07:30:48;4.67;;;3.60;;
4009;SDS011;2019;48.200;11.548;2022-07-17T07:33:14;3.50;;;3.00;;
4009;SDS011;2019;48.200;11.548;2022-07-17T07:35:41;7.13;;;3.50;;
4009;SDS011;2019;48.200;11.548;2022-07-17T07:38:08;4.57;;;3.33;;
4009;SDS011;2019;48.200;11.548;2022-07-17T07:40:33;5.37;;;4.00;;
4009;SDS011;2019;48.200;11.548;2022-07-17T07:42:59;4.43;;;3.80;;
4009;SDS011;2019;48.200;11.548;2022-07-17T07:45:25;5.27;;;3.80;;
4009;SDS011;2019;48.200;11.548;2022-07-17T07:47:51;4.90;;;3.33;;
4009;SDS011;2019;48.200;11.548;2022-07-17T07:50:17;12.13;;;4.07;;
4009;SDS011;2019;48.200;11.548;2022-07-17T07:52:44;8.50;;;3.57;;
4009;SDS011;2019;48.200;11.548;2022-07-17T07:55:10;3.67;;;3.27;;
4009;SDS011;2019;48.200;11.548;2022-07-17T07:57:36;4.60;;;3.50;;
4009;SDS011;2019;48.200;11.548;2022-07-17T08:00:03;6.70;;;3.53;;
4009;SDS011;2019;48.200;11.548;2022-07-17T08:02:30;3.60;;;3.13;;
4009;SDS011;2019;48.200;11.548;2022-07-17T08:04:55;5.50;;;4.20;;
4009;SDS011;2019;48.200;11.548;2022-07-17T08:07:21;4.87;;;2.60;;
4009;SDS011;2019;48.200;11.548;2022-07-17T08:09:46;5.33;;;3.20;;
4009;SDS011;2019;48.200;11.548;2022-07-17T08:12:13;4.70;;;3.43;;
4009;SDS011;2019;48.200;11.548;2022-07-17T08:14:39;5.30;;;4.00;;
4009;SDS011;2019;48.200;11.548;2022-07-17T08:17:04;3.90;;;3.20;;
4009;SDS011;2019;48.200;11.548;2022-07-17T08:19:30;4.50;;;3.17;;
4009;SDS011;2019;48.200;11.548;2022-07-17T08:21:56;4.57;;;3.30;;
4009;SDS011;2019;48.200;11.548;2022-07-17T08:24:21;4.40;;;3.30;;
4009;SDS011;2019;48.200;11.548;2022-07-17T08:26:47;5.07;;;3.50;;
4009;SDS011;2019;48.200;11.548;2022-07-17T08:29:13;6.30;;;3.50;;
4009;SDS011;2019;48.200;11.548;2022-07-17T08:31:40;5.50;;;3.13;;
4009;SDS011;2019;48.200;11.548;2022-07-17T08:34:06;4.80;;;3.03;;
4009;SDS011;2019;48.200;11.548;2022-07-17T08:36:32;4.00;;;3.10;;
4009;SDS011;2019;48.200;11.548;2022-07-17T08:38:58;3.90;;;3.50;;
4009;SDS011;2019;48.200;11.548;2022-07-17T08:41:24;4.87;;;3.17;;
4009;SDS011;2019;48.200;11.548;2022-07-17T08:43:51;5.23;;;3.57;;
4009;SDS011;2019;48.200;11.548;2022-07-17T08:46:19;4.63;;;3.93;;
4009;SDS011;2019;48.200;11.548;2022-07-17T08:48:48;10.03;;;4.10;;
4009;SDS011;2019;48.200;11.548;2022-07-17T08:51:17;5.10;;;3.57;;
4009;SDS011;2019;48.200;11.548;2022-07-17T08:53:44;5.83;;;4.30;;
4009;SDS011;2019;48.200;11.548;2022-07-17T08:56:10;4.47;;;3.70;;
4009;SDS011;2019;48.200;11.548;2022-07-17T08:58:36;5.70;;;3.40;;
4009;SDS011;2019;48.200;11.548;2022-07-17T09:01:02;6.80;;;4.00;;
4009;SDS011;2019;48.200;11.548;2022-07-17T09:03:28;4.10;;;3.60;;
4009;SDS011;2019;48.200;11.548;2022-07-17T09:05:53;6.77;;;3.50;;
4009;SDS011;2019;48.200;11.548;2022-07-17T09:08:20;6.57;;;4.00;;
4009;SDS011;2019;48.200;11.548;2022-07-17T09:10:48;5.57;;;4.07;;
4009;SDS011;2019;48.200;11.548;2022-07-17T09:13:20;5.07;;;3.47;;
4009;SDS011;2019;48.200;11.548;2022-07-17T09:15:55;6.73;;;4.40;;
4009;SDS011;2019;48.200;11.548;2022-07-17T09:18:41;6.80;;;4.40;;
4009;SDS011;2019;48.200;11.548;2022-07-17T09:23:45;5.67;;;3.80;;
4009;SDS011;2019;48.200;11.548;2022-07-17T09:26:11;3.47;;;3.10;;
4009;SDS011;2019;48.200;11.548;2022-07-17T09:28:45;4.93;;;3.77;;
4009;SDS011;2019;48.200;11.548;2022-07-17T09:31:11;5.63;;;3.53;;
4009;SDS011;2019;48.200;11.548;2022-07-17T09:33:39;3.90;;;3.20;;
4009;SDS011;2019;48.200;11.548;2022-07-17T09:36:06;4.17;;;3.43;;
4009;SDS011;2019;48.200;11.548;2022-07-17T09:38:34;5.27;;;3.57;;
4009;SDS011;2019;48.200;11.548;2022-07-17T09:41:33;8.13;;;3.13;;
4009;SDS011;2019;48.200;11.548;2022-07-17T09:43:55;5.40;;;3.23;;
4009;SDS011;2019;48.200;11.548;2022-07-17T09:46:24;7.30;;;3.97;;
4009;SDS011;2019;48.200;11.548;2022-07-17T09:48:56;7.17;;;4.13;;
4009;SDS011;2019;48.200;11.548;2022-07-17T09:51:26;3.10;;;2.70;;
4009;SDS011;2019;48.200;11.548;2022-07-17T09:53:59;8.57;;;3.70;;
4009;SDS011;2019;48.200;11.548;2022-07-17T09:56:28;5.03;;;3.23;;
4009;SDS011;2019;48.200;11.548;2022-07-17T09:59:05;9.83;;;3.20;;
4009;SDS011;2019;48.200;11.548;2022-07-17T10:01:32;3.83;;;3.33;;
4009;SDS011;2019;48.200;11.548;2022-07-17T10:03:59;5.53;;;3.13;;
4009;SDS011;2019;48.200;11.548;2022-07-17T10:06:25;6.27;;;2.93;;
4009;SDS011;2019;48.200;11.548;2022-07-17T10:08:52;5.70;;;3.13;;
4009;SDS011;2019;48.200;11.548;2022-07-17T10:11:19;12.33;;;3.60;;
4009;SDS011;2019;48.200;11.548;2022-07-17T10:13:47;4.87;;;3.43;;
4009;SDS011;2019;48.200;11.548;2022-07-17T10:16:22;5.10;;;3.30;;
4009;SDS011;2019;48.200;11.548;2022-07-17T10:18:51;4.73;;;3.50;;
4009;SDS011;2019;48.200;11.548;2022-07-17T10:21:20;9.30;;;7.40;;
4009;SDS011;2019;48.200;11.548;2022-07-17T10:23:48;6.03;;;3.20;;
4009;SDS011;2019;48.200;11.548;2022-07-17T10:26:19;14.47;;;9.80;;
4009;SDS011;2019;48.200;11.548;2022-07-17T10:29:06;6.47;;;3.80;;
4009;SDS011;2019;48.200;11.548;2022-07-17T10:31:51;5.10;;;3.10;;
4009;SDS011;2019;48.200;11.548;2022-07-17T10:34:17;4.90;;;3.17;;
4009;SDS011;2019;48.200;11.548;2022-07-17T10:36:43;4.00;;;3.03;;
4009;SDS011;2019;48.200;11.548;2022-07-17T10:39:20;4.33;;;3.10;;
4009;SDS011;2019;48.200;11.548;2022-07-17T10:41:59;4.10;;;2.80;;
4009;SDS011;2019;48.200;11.548;2022-07-17T10:44:29;5.10;;;3.30;;
4009;SDS011;2019;48.200;11.548;2022-07-17T10:46:57;3.90;;;3.50;;
4009;SDS011;2019;48.200;11.548;2022-07-17T10:49:23;3.43;;;3.13;;
4009;SDS011;2019;48.200;11.548;2022-07-17T10:51:50;7.10;;;3.70;;
4009;SDS011;2019;48.200;11.548;2022-07-17T10:54:19;14.40;;;9.57;;
4009;SDS011;2019;48.200;11.548;2022-07-17T10:56:46;6.83;;;4.33;;
4009;SDS011;2019;48.200;11.548;2022-07-17T10:59:13;5.80;;;3.30;;
4009;SDS011;2019;48.200;11.548;2022-07-17T11:01:39;6.20;;;5.30;;
4009;SDS011;2019;48.200;11.548;2022-07-17T11:04:04;6.17;;;4.10;;
4009;SDS011;2019;48.200;11.548;2022-07-17T11:06:32;5.37;;;3.43;;
4009;SDS011;2019;48.200;11.548;2022-07-17T11:09:09;4.20;;;3.70;;
4009;SDS011;2019;48.200;11.548;2022-07-17T11:11:46;7.03;;;3.03;;
4009;SDS011;2019;48.200;11.548;2022-07-17T11:19:36;5.13;;;3.20;;
4009;SDS011;2019;48.200;11.548;2022-07-17T11:22:10;7.90;;;3.30;;
4009;SDS011;2019;48.200;11.548;2022-07-17T11:24:40;3.60;;;3.30;;
4009;SDS011;2019;48.200;11.548;2022-07-17T11:27:23;9.10;;;3.10;;
4009;SDS011;2019;48.200;11.548;2022-07-17T11:29:49;4.10;;;3.20;;
4009;SDS011;2019;48.200;11.548;2022-07-17T11:32:16;4.00;;;2.87;;
4009;SDS011;2019;48.200;11.548;2022-07-17T11:34:42;4.57;;;2.77;;
4009;SDS011;2019;48.200;11.548;2022-07-17T11:37:08;6.50;;;3.33;;
4009;SDS011;2019;48.200;11.548;2022-07-17T11:39:38;3.57;;;3.17;;
4009;SDS011;2019;48.200;11.548;2022-07-17T11:42:07;5.40;;;3.33;;
4009;SDS011;2019;48.200;11.548;2022-07-17T11:44:35;4.43;;;3.93;;
4009;SDS011;2019;48.200;11.548;2022-07-17T11:47:01;6.63;;;4.50;;
4009;SDS011;2019;48.200;11.548;2022-07-17T11:49:34;5.93;;;3.40;;
4009;SDS011;2019;48.200;11.548;2022-07-17T11:52:22;5.53;;;3.40;;
4009;SDS011;2019;48.200;11.548;2022-07-17T11:54:53;6.50;;;2.97;;
4009;SDS011;2019;48.200;11.548;2022-07-17T11:57:21;4.10;;;2.60;;
4009;SDS011;2019;48.200;11.548;2022-07-17T11:59:48;4.33;;;2.57;;
4009;SDS011;2019;48.200;11.548;2022-07-17T12:02:18;5.10;;;3.30;;
4009;SDS011;2019;48.200;11.548;2022-07-17T12:04:56;4.90;;;2.40;;
4009;SDS011;2019;48.200;11.548;2022-07-17T12:07:38;4.53;;;3.00;;
4009;SDS011;2019;48.200;11.548;2022-07-17T12:10:15;4.17;;;2.73;;
4009;SDS011;2019;48.200;11.548;2022-07-17T12:12:57;3.27;;;2.90;;
4009;SDS011;2019;48.200;11.548;2022-07-17T12:15:42;3.33;;;2.80;;
4009;SDS011;2019;48.200;11.548;2022-07-17T12:18:23;3.23;;;2.90;;
4009;SDS011;2019;48.200;11.548;2022-07-17T12:20:52;4.20;;;3.07;;
4009;SDS011;2019;48.200;11.548;2022-07-17T12:23:55;7.60;;;6.83;;
4009;SDS011;2019;48.200;11.548;2022-07-17T12:26:20;3.17;;;2.77;;
4009;SDS011;2019;48.200;11.548;2022-07-17T12:28:46;11.83;;;10.73;;
4009;SDS011;2019;48.200;11.548;2022-07-17T12:31:12;3.40;;;2.67;;
4009;SDS011;2019;48.200;11.548;2022-07-17T12:33:41;8.07;;;5.37;;
4009;SDS011;2019;48.200;11.548;2022-07-17T12:36:08;3.83;;;2.70;;
4009;SDS011;2019;48.200;11.548;2022-07-17T12:38:34;3.80;;;3.27;;
4009;SDS011;2019;48.200;11.548;2022-07-17T12:41:00;2.93;;;2.30;;
4009;SDS011;2019;48.200;11.548;2022-07-17T12:43:25;3.70;;;2.60;;
4009;SDS011;2019;48.200;11.548;2022-07-17T12:45:51;2.80;;;2.60;;
4009;SDS011;2019;48.200;11.548;2022-07-17T12:48:17;4.90;;;2.67;;
4009;SDS011;2019;48.200;11.548;2022-07-17T12:50:43;3.13;;;2.30;;
4009;SDS011;2019;48.200;11.548;2022-07-17T12:53:09;4.10;;;2.53;;
4009;SDS011;2019;48.200;11.548;2022-07-17T12:55:34;2.90;;;2.30;;
4009;SDS011;2019;48.200;11.548;2022-07-17T12:58:01;10.67;;;2.60;;
4009;SDS011;2019;48.200;11.548;2022-07-17T13:00:28;4.00;;;2.90;;
4009;SDS011;2019;48.200;11.548;2022-07-17T13:02:54;3.73;;;3.03;;
4009;SDS011;2019;48.200;11.548;2022-07-17T13:05:20;3.00;;;2.67;;
4009;SDS011;2019;48.200;11.548;2022-07-17T13:07:45;2.93;;;2.60;;
4009;SDS011;2019;48.200;11.548;2022-07-17T13:10:11;4.10;;;2.40;;
4009;SDS011;2019;48.200;11.548;2022-07-17T13:12:37;5.90;;;2.23;;
4009;SDS011;2019;48.200;11.548;2022-07-17T13:15:03;2.40;;;2.20;;
4009;SDS011;2019;48.200;11.548;2022-07-17T13:17:29;4.30;;;2.40;;
4009;SDS011;2019;48.200;11.548;2022-07-17T13:19:55;2.93;;;2.50;;
4009;SDS011;2019;48.200;11.548;2022-07-17T13:22:21;4.10;;;2.73;;
4009;SDS011;2019;48.200;11.548;2022-07-17T13:24:46;3.20;;;2.50;;
4009;SDS011;2019;48.200;11.548;2022-07-17T13:27:12;3.50;;;2.40;;
4009;SDS011;2019;48.200;11.548;2022-07-17T13:29:38;2.73;;;2.50;;
4009;SDS011;2019;48.200;11.548;2022-07-17T13:32:04;5.50;;;3.30;;
4009;SDS011;2019;48.200;11.548;2022-07-17T13:34:30;4.30;;;2.80;;
4009;SDS011;2019;48.200;11.548;2022-07-17T13:36:55;3.30;;;3.00;;
4009;SDS011;2019;48.200;11.548;2022-07-17T13:39:22;2.53;;;2.33;;
4009;SDS011;2019;48.200;11.548;2022-07-17T13:41:48;4.13;;;2.80;;
4009;SDS011;2019;48.200;11.548;2022-07-17T13:44:13;4.50;;;2.50;;
4009;SDS011;2019;48.200;11.548;2022-07-17T13:46:39;5.23;;;3.00;;
4009;SDS011;2019;48.200;11.548;2022-07-17T13:49:05;4.10;;;2.60;;
4009;SDS011;2019;48.200;11.548;2022-07-17T13:51:30;3.40;;;2.27;;
4009;SDS011;2019;48.200;11.548;2022-07-17T13:53:57;4.50;;;2.73;;
4009;SDS011;2019;48.200;11.548;2022-07-17T13:56:23;6.70;;;2.40;;
4009;SDS011;2019;48.200;11.548;2022-07-17T13:58:49;6.40;;;3.10;;
4009;SDS011;2019;48.200;11.548;2022-07-17T14:01:15;3.33;;;2.77;;
4009;SDS011;2019;48.200;11.548;2022-07-17T14:03:40;2.37;;;2.17;;
4009;SDS011;2019;48.200;11.548;2022-07-17T14:06:06;4.03;;;2.50;;
4009;SDS011;2019;48.200;11.548;2022-07-17T14:08:32;5.50;;;2.60;;
4009;SDS011;2019;48.200;11.548;2022-07-17T14:10:58;3.03;;;2.73;;
4009;SDS011;2019;48.200;11.548;2022-07-17T14:13:24;6.90;;;2.53;;
4009;SDS011;2019;48.200;11.548;2022-07-17T14:15:50;2.80;;;2.60;;
4009;SDS011;2019;48.200;11.548;2022-07-17T14:18:16;4.50;;;2.17;;
4009;SDS011;2019;48.200;11.548;2022-07-17T14:20:41;3.40;;;2.43;;
4009;SDS011;2019;48.200;11.548;2022-07-17T14:23:07;3.67;;;2.43;;
4009;SDS011;2019;48.200;11.548;2022-07-17T14:25:33;3.47;;;2.30;;
4009;SDS011;2019;48.200;11.548;2022-07-17T14:27:59;2.90;;;2.70;;
4009;SDS011;2019;48.200;11.548;2022-07-17T14:30:24;4.60;;;2.80;;
4009;SDS011;2019;48.200;11.548;2022-07-17T14:32:50;4.00;;;2.70;;
4009;SDS011;2019;48.200;11.548;2022-07-17T14:35:17;7.50;;;2.77;;
4009;SDS011;2019;48.200;11.548;2022-07-17T14:37:42;4.10;;;2.80;;
4009;SDS011;2019;48.200;11.548;2022-07-17T14:40:09;3.43;;;2.53;;
4009;SDS011;2019;48.200;11.548;2022-07-17T14:42:35;4.50;;;2.77;;
4009;SDS011;2019;48.200;11.548;2022-07-17T14:45:01;4.33;;;2.90;;
4009;SDS011;2019;48.200;11.548;2022-07-17T14:47:27;5.70;;;2.30;;
4009;SDS011;2019;48.200;11.548;2022-07-17T14:49:53;3.00;;;2.70;;
4009;SDS011;2019;48.200;11.548;2022-07-17T14:52:18;3.20;;;2.80;;
4009;SDS011;2019;48.200;11.548;2022-07-17T14:54:44;3.90;;;2.90;;
4009;SDS011;2019;48.200;11.548;2022-07-17T14:57:10;4.60;;;2.90;;
4009;SDS011;2019;48.200;11.548;2022-07-17T14:59:35;2.87;;;2.67;;
4009;SDS011;2019;48.200;11.548;2022-07-17T15:02:01;3.83;;;2.70;;